Time;durP1;ratioP1;P1;durP2;ratioP2;P2;SDS_P1;SDS_P2;PMS_P1;PMS_P2;Temp;Humidity;BMP_temperature;BMP_pressure;BME280_temperature;BME280_humidity;BME280_pressure;Samples;Min_cycle;Max_cycle;Signal;HPM_P1;HPM_P2
2021/10/14 00:00:08;;;;;;;6.82;2.35;;;12.30;95.00;;;;;;5013730;28;20480;-75
2021/10/14 00:02:34;;;;;;;7.15;2.20;;;12.30;95.00;;;;;;5012061;28;20173;-75
2021/10/14 00:05:00;;;;;;;5.00;2.03;;;12.30;94.90;;;;;;5013911;28;20467;-74
2021/10/14 00:07:25;;;;;;;4.60;2.35;;;12.30;95.00;;;;;;5029125;28;20069;-74
2021/10/14 00:09:51;;;;;;;6.25;2.33;;;12.30;95.10;;;;;;5013078;28;20469;-75
2021/10/14 00:12:16;;;;;;;4.25;2.65;;;12.30;95.10;;;;;;5013729;28;20217;-75
2021/10/14 00:14:42;;;;;;;4.03;2.17;;;12.30;95.10;;;;;;5013072;28;20065;-74
2021/10/14 00:17:08;;;;;;;4.93;2.10;;;12.40;95.20;;;;;;5013650;28;20026;-74
2021/10/14 00:19:33;;;;;;;7.20;2.45;;;12.40;95.10;;;;;;5013219;28;20378;-75
2021/10/14 00:21:59;;;;;;;4.05;2.17;;;12.40;95.10;;;;;;5013674;28;20018;-75
2021/10/14 00:24:25;;;;;;;5.30;2.10;;;12.40;95.10;;;;;;5011898;28;20033;-75
2021/10/14 00:26:50;;;;;;;4.75;2.38;;;12.40;95.10;;;;;;5011726;28;20036;-75
2021/10/14 00:29:16;;;;;;;3.25;1.90;;;12.40;95.20;;;;;;5012209;28;20438;-75
2021/10/14 00:31:42;;;;;;;5.95;2.50;;;12.40;95.20;;;;;;5027469;28;20084;-76
2021/10/14 00:34:07;;;;;;;7.00;3.05;;;12.40;95.20;;;;;;5013603;28;20049;-76
2021/10/14 00:36:33;;;;;;;9.23;2.85;;;12.40;95.20;;;;;;5011405;28;20024;-75
2021/10/14 00:38:59;;;;;;;5.20;3.05;;;12.40;95.20;;;;;;5013598;28;20050;-75
2021/10/14 00:41:25;;;;;;;5.78;2.92;;;12.40;95.30;;;;;;5013137;28;20026;-75
2021/10/14 00:43:56;;;;;;;6.47;2.88;;;12.50;95.30;;;;;;5012280;28;20583;-74
2021/10/14 00:46:21;;;;;;;9.88;3.78;;;12.50;95.30;;;;;;5011913;28;20065;-74
2021/10/14 00:48:47;;;;;;;7.57;2.92;;;12.40;95.30;;;;;;5010881;28;20485;-74
2021/10/14 00:51:13;;;;;;;5.88;2.95;;;12.50;95.30;;;;;;5011664;28;20061;-74
2021/10/14 00:53:39;;;;;;;6.28;2.45;;;12.50;95.40;;;;;;5012449;28;20041;-75
2021/10/14 00:56:07;;;;;;;4.55;2.55;;;12.50;95.40;;;;;;5011812;28;20030;-75
2021/10/14 00:58:36;;;;;;;7.47;3.03;;;12.50;95.40;;;;;;5012319;28;20030;-75
2021/10/14 01:01:04;;;;;;;6.68;3.30;;;12.50;95.40;;;;;;5011551;28;20141;-75
2021/10/14 01:03:30;;;;;;;7.05;3.00;;;12.50;95.40;;;;;;5013165;28;20034;-75
2021/10/14 01:05:57;;;;;;;6.85;3.13;;;12.50;95.50;;;;;;5012151;28;20033;-75
2021/10/14 01:08:23;;;;;;;8.52;4.05;;;12.50;95.40;;;;;;5012453;28;20025;-75
2021/10/14 01:10:50;;;;;;;10.60;3.65;;;12.50;95.40;;;;;;5012136;28;20524;-75
2021/10/14 01:13:16;;;;;;;7.13;3.60;;;12.50;95.50;;;;;;5012822;28;20033;-75
2021/10/14 01:15:44;;;;;;;6.32;3.33;;;12.50;95.50;;;;;;5010743;28;20116;-75
2021/10/14 01:18:11;;;;;;;9.00;4.28;;;12.50;95.50;;;;;;5027726;28;20026;-75
2021/10/14 01:20:37;;;;;;;7.97;4.05;;;12.50;95.50;;;;;;5012040;28;20062;-76
2021/10/14 01:23:03;;;;;;;10.88;5.25;;;12.50;95.50;;;;;;5027737;28;20041;-76
2021/10/14 01:25:30;;;;;;;10.80;4.50;;;12.50;95.60;;;;;;5012273;28;20053;-76
2021/10/14 01:27:56;;;;;;;10.38;5.10;;;12.50;95.60;;;;;;5010557;28;20021;-75
2021/10/14 01:30:22;;;;;;;13.63;4.60;;;12.50;95.70;;;;;;5012221;28;20423;-75
2021/10/14 01:32:49;;;;;;;9.60;4.47;;;12.50;95.70;;;;;;5011886;28;20033;-75
2021/10/14 01:35:15;;;;;;;7.82;4.30;;;12.50;95.80;;;;;;5012391;28;20025;-75
2021/10/14 01:37:41;;;;;;;10.43;5.07;;;12.50;95.80;;;;;;5011999;28;20454;-75
2021/10/14 01:40:08;;;;;;;11.75;5.50;;;12.50;95.70;;;;;;5012467;28;20470;-75
2021/10/14 01:42:33;;;;;;;10.75;5.43;;;12.50;95.80;;;;;;5011130;28;20026;-76
2021/10/14 01:45:00;;;;;;;11.05;5.20;;;12.40;95.90;;;;;;5011395;28;20024;-76
2021/10/14 01:47:27;;;;;;;12.43;4.95;;;12.40;95.90;;;;;;5010991;28;20087;-76
2021/10/14 01:49:52;;;;;;;12.60;5.13;;;12.50;95.90;;;;;;5011334;28;20052;-76
2021/10/14 01:52:18;;;;;;;12.65;5.55;;;12.50;95.90;;;;;;5010927;28;20455;-75
2021/10/14 01:54:44;;;;;;;13.43;5.50;;;12.50;96.00;;;;;;5010698;28;20030;-76
2021/10/14 01:57:09;;;;;;;11.98;5.95;;;12.50;96.00;;;;;;5010785;28;20026;-75
2021/10/14 01:59:35;;;;;;;10.68;5.28;;;12.50;96.00;;;;;;5012089;28;20076;-74
2021/10/14 02:02:01;;;;;;;15.80;5.80;;;12.50;96.00;;;;;;5011491;28;20014;-74
2021/10/14 02:04:26;;;;;;;11.68;5.47;;;12.50;96.00;;;;;;5027201;28;20128;-75
2021/10/14 02:06:52;;;;;;;12.15;6.65;;;12.50;96.00;;;;;;5011395;28;20081;-75
2021/10/14 02:09:17;;;;;;;13.88;6.20;;;12.50;96.00;;;;;;5011996;28;20141;-75
2021/10/14 02:11:43;;;;;;;14.02;6.20;;;12.50;96.00;;;;;;5011297;28;20022;-75
2021/10/14 02:14:09;;;;;;;14.43;6.78;;;12.50;96.00;;;;;;5011919;28;20033;-75
2021/10/14 02:16:34;;;;;;;15.43;6.78;;;12.50;96.10;;;;;;5012047;28;20494;-75
2021/10/14 02:19:00;;;;;;;11.68;6.43;;;12.50;96.10;;;;;;5011333;28;20105;-75
2021/10/14 02:21:26;;;;;;;13.20;6.68;;;12.50;96.10;;;;;;5026957;28;20120;-75
2021/10/14 02:23:51;;;;;;;12.13;6.53;;;12.60;96.20;;;;;;5011315;28;20390;-76
2021/10/14 02:26:17;;;;;;;15.02;6.82;;;12.60;96.20;;;;;;5010685;28;20018;-75
2021/10/14 02:28:42;;;;;;;14.77;7.00;;;12.70;96.20;;;;;;5011281;28;20030;-76
2021/10/14 02:31:08;;;;;;;17.02;6.82;;;12.70;96.20;;;;;;5011347;28;20050;-75
2021/10/14 02:33:34;;;;;;;18.63;8.38;;;12.70;96.20;;;;;;5011487;28;20022;-75
2021/10/14 02:35:59;;;;;;;16.60;7.78;;;12.70;96.20;;;;;;5010030;28;20076;-74
2021/10/14 02:38:25;;;;;;;15.50;7.65;;;12.70;96.20;;;;;;5011780;28;20100;-75
2021/10/14 02:40:51;;;;;;;17.98;8.05;;;12.70;96.20;;;;;;5011128;28;20105;-75
2021/10/14 02:43:16;;;;;;;19.67;9.20;;;12.70;96.20;;;;;;5011707;28;20026;-75
2021/10/14 02:45:42;;;;;;;15.93;7.38;;;12.70;96.30;;;;;;5011189;28;20076;-75
2021/10/14 02:48:08;;;;;;;16.30;8.35;;;12.70;96.30;;;;;;5011911;28;20080;-75
2021/10/14 02:50:33;;;;;;;20.35;8.38;;;12.70;96.30;;;;;;5026702;28;20033;-75
2021/10/14 02:52:59;;;;;;;19.05;8.68;;;12.70;96.30;;;;;;5009736;28;20088;-75
2021/10/14 02:55:25;;;;;;;15.40;7.43;;;12.80;96.40;;;;;;5010320;28;20121;-75
2021/10/14 02:57:50;;;;;;;18.60;8.15;;;12.80;96.40;;;;;;5011162;28;20112;-75
2021/10/14 03:00:16;;;;;;;18.98;8.70;;;12.80;96.40;;;;;;5011642;28;20029;-75
2021/10/14 03:02:42;;;;;;;21.90;8.85;;;12.80;96.40;;;;;;5010638;28;20379;-75
2021/10/14 03:05:07;;;;;;;20.63;9.38;;;12.80;96.40;;;;;;5011530;28;20022;-75
2021/10/14 03:07:33;;;;;;;19.85;8.93;;;12.80;96.50;;;;;;5015086;28;20033;-75
2021/10/14 03:09:59;;;;;;;14.73;7.35;;;12.70;96.50;;;;;;5014229;28;20057;-76
2021/10/14 03:12:24;;;;;;;21.75;9.80;;;12.70;96.50;;;;;;5013787;28;20390;-75
2021/10/14 03:14:50;;;;;;;19.45;8.38;;;12.70;96.50;;;;;;5013099;28;20021;-75
2021/10/14 03:17:16;;;;;;;20.05;8.35;;;12.70;96.60;;;;;;5013555;28;20105;-75
2021/10/14 03:19:42;;;;;;;17.70;7.38;;;12.70;96.60;;;;;;5014808;28;20030;-75
2021/10/14 03:22:07;;;;;;;20.38;8.13;;;12.80;96.60;;;;;;5014489;28;20026;-75
2021/10/14 03:24:33;;;;;;;21.38;10.00;;;12.70;96.60;;;;;;5014994;28;20332;-75
2021/10/14 03:26:58;;;;;;;21.05;8.70;;;12.80;96.60;;;;;;5014101;28;20529;-76
2021/10/14 03:29:24;;;;;;;21.50;9.45;;;12.80;96.60;;;;;;5014849;28;20022;-75
2021/10/14 03:31:50;;;;;;;21.88;9.07;;;12.80;96.70;;;;;;5014232;28;20129;-75
2021/10/14 03:34:15;;;;;;;16.73;8.25;;;12.70;96.70;;;;;;5006320;28;20029;-75
2021/10/14 03:36:41;;;;;;;17.35;8.35;;;12.80;96.70;;;;;;5002706;28;20025;-75
2021/10/14 03:39:06;;;;;;;17.67;8.73;;;12.80;96.80;;;;;;5005462;28;20030;-75
2021/10/14 03:41:32;;;;;;;19.90;8.50;;;12.80;96.80;;;;;;5011503;28;20038;-76
2021/10/14 03:43:58;;;;;;;14.77;7.20;;;12.80;96.70;;;;;;5008707;28;20031;-76
2021/10/14 03:46:23;;;;;;;19.17;9.13;;;12.80;96.80;;;;;;5010024;28;20026;-75
2021/10/14 03:48:49;;;;;;;18.95;9.45;;;12.80;96.80;;;;;;5009779;28;20024;-75
2021/10/14 03:51:15;;;;;;;18.25;8.00;;;12.80;96.80;;;;;;5011444;28;20022;-75
2021/10/14 03:53:40;;;;;;;13.90;7.47;;;12.80;96.80;;;;;;5009658;28;20034;-76
2021/10/14 03:56:06;;;;;;;19.13;8.20;;;12.80;96.80;;;;;;5008742;28;20031;-76
2021/10/14 03:58:32;;;;;;;19.63;9.23;;;12.80;96.80;;;;;;4996915;28;20690;-76
2021/10/14 04:00:57;;;;;;;15.88;8.40;;;12.90;96.80;;;;;;5002091;28;20033;-75
2021/10/14 04:03:23;;;;;;;19.52;10.30;;;12.80;96.80;;;;;;5003226;28;20025;-76
2021/10/14 04:05:49;;;;;;;18.88;9.90;;;12.80;96.80;;;;;;4995085;28;20138;-76
2021/10/14 04:08:14;;;;;;;21.50;9.73;;;12.90;96.80;;;;;;5003749;28;20450;-76
2021/10/14 04:10:40;;;;;;;16.90;9.27;;;12.90;96.90;;;;;;4993533;28;20061;-76
2021/10/14 04:13:06;;;;;;;19.35;9.18;;;12.90;96.80;;;;;;4993526;28;20183;-75
2021/10/14 04:15:32;;;;;;;19.08;9.20;;;12.90;96.80;;;;;;4994427;28;20073;-75
2021/10/14 04:17:57;;;;;;;16.10;8.73;;;12.90;96.80;;;;;;5008181;28;20026;-76
2021/10/14 04:20:23;;;;;;;19.30;10.27;;;12.90;96.80;;;;;;4992836;28;20018;-75
2021/10/14 04:22:50;;;;;;;17.60;9.07;;;12.90;96.80;;;;;;4992102;28;20498;-75
2021/10/14 04:25:16;;;;;;;18.55;9.70;;;12.90;96.80;;;;;;4993993;28;20029;-76
2021/10/14 04:27:41;;;;;;;17.02;9.32;;;12.90;97.10;;;;;;5007212;28;20030;-76
2021/10/14 04:30:07;;;;;;;18.65;9.18;;;12.90;96.80;;;;;;4990795;28;20414;-76
2021/10/14 04:32:33;;;;;;;16.45;9.10;;;12.90;96.80;;;;;;5006514;28;20459;-75
2021/10/14 04:34:59;;;;;;;18.77;9.50;;;12.90;96.80;;;;;;4989749;28;20129;-75
2021/10/14 04:37:25;;;;;;;17.85;9.23;;;12.80;96.90;;;;;;4991860;28;20135;-77
2021/10/14 04:39:50;;;;;;;17.27;9.10;;;12.80;96.90;;;;;;4990670;28;20027;-77
2021/10/14 04:42:16;;;;;;;22.55;11.25;;;12.90;96.90;;;;;;4990848;28;20022;-78
2021/10/14 04:44:42;;;;;;;19.65;10.20;;;12.80;96.90;;;;;;5008765;28;20034;-78
2021/10/14 04:47:08;;;;;;;16.88;9.75;;;12.80;96.90;;;;;;5014336;28;20436;-78
2021/10/14 04:49:34;;;;;;;15.73;8.75;;;12.90;97.00;;;;;;5009478;28;20116;-78
2021/10/14 04:52:01;;;;;;;14.65;8.45;;;12.90;96.90;;;;;;5008934;28;20025;-78
2021/10/14 04:54:27;;;;;;;15.85;8.77;;;12.90;96.90;;;;;;5010113;28;20555;-78
2021/10/14 04:56:53;;;;;;;14.80;7.90;;;12.90;96.90;;;;;;5008810;28;20033;-76
2021/10/14 04:59:19;;;;;;;18.38;10.18;;;12.90;96.90;;;;;;5007719;28;20030;-78
2021/10/14 05:01:45;;;;;;;16.98;9.73;;;12.90;96.90;;;;;;5009420;28;20427;-72
2021/10/14 05:04:10;;;;;;;15.13;8.15;;;12.90;96.90;;;;;;4993200;28;20168;-73
2021/10/14 05:06:36;;;;;;;22.67;10.43;;;12.90;96.90;;;;;;4992422;28;20030;-74
2021/10/14 05:09:02;;;;;;;16.42;9.77;;;12.90;96.90;;;;;;4992215;28;20030;-74
2021/10/14 05:11:27;;;;;;;17.67;9.43;;;13.00;96.90;;;;;;4992677;28;20549;-74
2021/10/14 05:13:53;;;;;;;15.68;8.85;;;12.90;96.90;;;;;;4992492;28;20037;-74
2021/10/14 05:16:19;;;;;;;18.33;10.15;;;12.90;96.90;;;;;;4993349;28;20023;-74
2021/10/14 05:18:44;;;;;;;18.85;9.98;;;13.00;97.00;;;;;;5008007;28;20117;-74
2021/10/14 05:21:10;;;;;;;18.40;10.23;;;12.90;96.90;;;;;;4992338;28;20399;-74
2021/10/14 05:23:36;;;;;;;16.92;8.88;;;12.90;97.00;;;;;;4992542;28;20030;-74
2021/10/14 05:26:01;;;;;;;16.60;8.18;;;13.00;97.00;;;;;;4992318;28;20101;-73
2021/10/14 05:28:27;;;;;;;16.33;9.30;;;13.00;97.00;;;;;;4990821;28;20029;-73
2021/10/14 05:30:53;;;;;;;21.25;9.95;;;12.90;97.00;;;;;;5006775;28;20042;-73
2021/10/14 05:33:18;;;;;;;19.25;9.13;;;12.90;97.00;;;;;;4992676;28;20057;-74
2021/10/14 05:35:45;;;;;;;18.98;9.75;;;12.90;97.10;;;;;;5008010;28;20069;-73
2021/10/14 05:38:10;;;;;;;19.23;10.40;;;12.90;97.10;;;;;;4991902;28;20550;-73
2021/10/14 05:40:36;;;;;;;18.50;10.13;;;12.80;97.10;;;;;;5007678;28;20118;-74
2021/10/14 05:43:03;;;;;;;18.73;10.05;;;12.90;97.20;;;;;;5006989;28;20125;-73
2021/10/14 05:45:29;;;;;;;19.73;10.02;;;12.80;97.20;;;;;;4992582;28;20069;-74
2021/10/14 05:47:54;;;;;;;18.23;10.20;;;12.80;97.30;;;;;;4992089;28;20034;-74
2021/10/14 05:50:21;;;;;;;17.58;8.45;;;12.80;97.30;;;;;;4992484;28;20034;-74
2021/10/14 05:52:47;;;;;;;21.05;11.52;;;12.80;97.30;;;;;;4992515;28;20027;-73
2021/10/14 05:55:12;;;;;;;18.58;9.52;;;12.80;97.30;;;;;;4991930;28;20318;-74
2021/10/14 05:57:38;;;;;;;18.70;10.75;;;12.90;97.40;;;;;;4992153;28;20050;-74
2021/10/14 06:00:05;;;;;;;18.67;10.27;;;12.80;97.40;;;;;;4992137;28;20031;-74
2021/10/14 06:02:31;;;;;;;16.88;9.85;;;12.80;97.40;;;;;;4992553;28;20026;-74
2021/10/14 06:04:56;;;;;;;21.25;10.43;;;12.80;97.40;;;;;;4990621;28;20335;-74
2021/10/14 06:07:22;;;;;;;20.48;10.75;;;12.90;97.40;;;;;;4992402;28;20032;-74
2021/10/14 06:09:47;;;;;;;16.25;7.85;;;12.90;97.40;;;;;;4992384;28;20030;-74
2021/10/14 06:12:13;;;;;;;19.55;10.68;;;12.90;97.40;;;;;;4991669;28;20285;-75
2021/10/14 06:14:40;;;;;;;17.70;9.65;;;12.90;97.40;;;;;;4992333;28;20029;-73
2021/10/14 06:17:06;;;;;;;15.88;8.95;;;13.00;97.40;;;;;;5006703;28;20014;-74
2021/10/14 06:19:31;;;;;;;18.30;9.98;;;13.00;97.30;;;;;;4992398;28;20443;-76
2021/10/14 06:21:57;;;;;;;19.60;10.93;;;13.00;97.30;;;;;;4991795;28;20408;-75
2021/10/14 06:24:22;;;;;;;24.05;11.10;;;13.00;97.30;;;;;;4992603;28;20034;-74
2021/10/14 06:26:48;;;;;;;17.42;9.25;;;13.10;97.30;;;;;;4992214;28;20027;-73
2021/10/14 06:29:14;;;;;;;18.95;9.93;;;13.00;97.30;;;;;;4991611;28;20422;-74
2021/10/14 06:31:39;;;;;;;18.52;9.48;;;13.00;97.60;;;;;;4991681;28;20050;-74
2021/10/14 06:34:05;;;;;;;21.40;10.50;;;13.00;97.30;;;;;;4991522;28;20019;-74
2021/10/14 06:36:31;;;;;;;18.02;9.55;;;13.10;97.40;;;;;;4992061;28;20442;-74
2021/10/14 06:38:57;;;;;;;19.80;10.27;;;13.10;97.40;;;;;;4991407;28;20069;-74
2021/10/14 06:41:23;;;;;;;22.88;10.93;;;13.00;97.30;;;;;;4995657;28;20034;-74
2021/10/14 06:43:49;;;;;;;20.38;10.75;;;13.10;97.40;;;;;;5010830;28;20014;-74
2021/10/14 06:46:15;;;;;;;23.00;10.63;;;13.10;97.40;;;;;;4994897;28;20475;-73
2021/10/14 06:48:40;;;;;;;20.42;10.55;;;13.00;97.40;;;;;;4995707;28;20026;-73
2021/10/14 06:51:06;;;;;;;19.30;10.77;;;13.00;97.40;;;;;;5009872;28;20121;-73
2021/10/14 06:53:32;;;;;;;21.67;10.55;;;13.10;97.50;;;;;;5010690;28;20055;-74
2021/10/14 06:55:59;;;;;;;20.58;10.27;;;13.10;97.50;;;;;;5009993;28;20018;-73
2021/10/14 06:58:25;;;;;;;24.63;11.95;;;13.10;97.50;;;;;;4995531;28;20030;-73
2021/10/14 07:00:50;;;;;;;24.75;11.30;;;13.10;97.50;;;;;;5010652;28;20034;-74
2021/10/14 07:03:16;;;;;;;20.27;9.10;;;13.10;97.50;;;;;;5009907;28;20022;-74
2021/10/14 07:05:42;;;;;;;19.17;9.98;;;13.10;97.50;;;;;;4995570;28;20434;-73
2021/10/14 07:08:08;;;;;;;20.38;10.50;;;13.10;97.50;;;;;;4994856;28;20366;-73
2021/10/14 07:10:33;;;;;;;17.20;9.98;;;13.10;97.50;;;;;;4995259;28;20042;-73
2021/10/14 07:13:05;;;;;;;23.60;11.43;;;13.10;97.50;;;;;;4994679;28;20029;-74
2021/10/14 07:15:32;;;;;;;24.05;11.02;;;13.10;97.50;;;;;;4995207;28;20513;-74
2021/10/14 07:17:58;;;;;;;21.65;10.10;;;13.20;97.60;;;;;;4995180;28;20025;-74
2021/10/14 07:20:24;;;;;;;27.75;12.50;;;13.10;97.50;;;;;;4995128;28;20511;-74
2021/10/14 07:22:50;;;;;;;24.73;12.35;;;13.20;97.60;;;;;;4994880;28;20026;-75
2021/10/14 07:25:15;;;;;;;27.30;11.98;;;13.20;97.60;;;;;;4994443;28;20073;-74
2021/10/14 07:27:41;;;;;;;27.70;13.18;;;13.20;97.50;;;;;;4995122;28;20026;-74
2021/10/14 07:30:08;;;;;;;28.52;12.43;;;13.20;97.60;;;;;;4994135;28;20085;-75
2021/10/14 07:32:33;;;;;;;27.60;12.80;;;13.20;97.60;;;;;;4994980;28;20023;-75
2021/10/14 07:34:59;;;;;;;26.30;12.77;;;13.20;97.60;;;;;;4994968;28;20037;-75
2021/10/14 07:37:25;;;;;;;22.45;12.18;;;13.20;97.70;;;;;;5009904;28;20029;-75
2021/10/14 07:39:51;;;;;;;24.65;12.38;;;13.20;97.70;;;;;;4994899;28;20089;-75
2021/10/14 07:42:16;;;;;;;26.02;13.07;;;13.20;97.70;;;;;;4993957;28;20026;-74
2021/10/14 07:44:42;;;;;;;22.42;11.52;;;13.30;97.70;;;;;;5009816;28;20126;-74
2021/10/14 07:47:08;;;;;;;19.63;11.55;;;13.30;97.70;;;;;;5009081;28;20022;-74
2021/10/14 07:49:34;;;;;;;24.33;12.23;;;13.30;97.70;;;;;;4994583;28;20034;-74
2021/10/14 07:51:59;;;;;;;22.92;12.43;;;13.30;97.70;;;;;;5008652;28;20045;-74
2021/10/14 07:54:25;;;;;;;23.30;11.68;;;13.40;97.70;;;;;;4994232;28;20038;-74
2021/10/14 07:56:51;;;;;;;27.35;12.77;;;13.30;97.60;;;;;;5009547;28;20030;-74
2021/10/14 07:59:17;;;;;;;26.65;12.50;;;13.30;97.70;;;;;;4992551;28;20094;-74
2021/10/14 08:01:43;;;;;;;26.17;13.18;;;13.30;97.70;;;;;;4994038;28;20034;-74
2021/10/14 08:04:09;;;;;;;26.88;13.25;;;13.30;97.70;;;;;;4993743;28;20077;-74
2021/10/14 08:06:35;;;;;;;30.08;13.25;;;13.30;97.80;;;;;;4994383;28;20037;-74
2021/10/14 08:09:02;;;;;;;26.23;13.20;;;13.30;97.80;;;;;;4994322;28;20018;-74
2021/10/14 08:11:28;;;;;;;22.40;11.75;;;13.30;97.80;;;;;;4994273;28;20030;-74
2021/10/14 08:13:54;;;;;;;23.10;11.32;;;13.40;97.80;;;;;;4994038;28;20031;-74
2021/10/14 08:16:20;;;;;;;24.42;13.15;;;13.40;97.80;;;;;;4993271;28;20038;-74
2021/10/14 08:18:45;;;;;;;22.40;12.82;;;13.40;97.70;;;;;;4994120;28;20117;-74
2021/10/14 08:21:11;;;;;;;22.15;12.02;;;13.50;97.80;;;;;;4993236;28;20042;-74
2021/10/14 08:23:37;;;;;;;25.80;12.93;;;13.50;97.70;;;;;;4993793;28;20022;-74
2021/10/14 08:26:03;;;;;;;22.98;10.23;;;13.50;97.70;;;;;;4994055;28;20113;-75
2021/10/14 08:28:29;;;;;;;22.02;11.85;;;13.50;97.70;;;;;;4994147;28;20041;-75
2021/10/14 08:30:55;;;;;;;23.23;12.30;;;13.50;97.70;;;;;;5008534;28;20586;-75
2021/10/14 08:33:21;;;;;;;19.92;10.00;;;13.50;97.70;;;;;;4993595;28;20022;-75
2021/10/14 08:35:47;;;;;;;23.50;11.07;;;13.60;97.70;;;;;;5008934;28;20026;-74
2021/10/14 08:38:13;;;;;;;24.08;11.98;;;13.60;97.70;;;;;;5008333;28;20081;-75
2021/10/14 08:40:39;;;;;;;24.45;13.23;;;13.60;97.70;;;;;;4993688;28;20565;-75
2021/10/14 08:43:18;;;;;;;27.80;13.48;;;13.60;97.70;;;;;;4992950;28;20096;-75
2021/10/14 08:45:46;;;;;;;26.55;13.00;;;13.70;97.70;;;;;;4993627;28;20031;-75
2021/10/14 08:48:12;;;;;;;24.77;12.93;;;13.70;97.60;;;;;;4992890;28;20466;-74
2021/10/14 08:50:42;;;;;;;24.70;12.57;;;13.80;97.60;;;;;;5008748;28;20496;-74
2021/10/14 08:53:08;;;;;;;23.65;12.35;;;13.80;97.60;;;;;;4992920;28;20054;-74
2021/10/14 08:55:35;;;;;;;23.38;11.57;;;13.80;97.60;;;;;;4992214;28;20023;-74
2021/10/14 08:58:02;;;;;;;26.13;13.45;;;13.80;97.70;;;;;;4993354;28;20216;-74
2021/10/14 09:00:27;;;;;;;30.17;13.73;;;13.80;97.60;;;;;;4992640;28;20027;-72
2021/10/14 09:02:53;;;;;;;24.40;12.38;;;13.80;97.60;;;;;;4993244;28;20603;-75
2021/10/14 09:05:19;;;;;;;24.50;13.45;;;13.80;97.60;;;;;;4992389;28;20034;-74
2021/10/14 09:07:49;;;;;;;23.67;13.93;;;13.90;97.60;;;;;;4993258;28;20018;-74
2021/10/14 09:10:15;;;;;;;22.97;11.53;;;13.90;97.60;;;;;;4992531;28;20044;-74
2021/10/14 09:12:47;;;;;;;24.42;11.32;;;14.00;97.60;;;;;;4993112;28;20312;-74
2021/10/14 09:15:17;;;;;;;20.27;10.15;;;14.00;97.50;;;;;;4992510;28;20033;-73
2021/10/14 09:17:49;;;;;;;20.63;10.93;;;14.10;97.50;;;;;;4993023;28;20077;-73
2021/10/14 09:20:20;;;;;;;22.42;11.25;;;14.20;97.40;;;;;;4992727;28;20023;-75
2021/10/14 09:23:04;;;;;;;21.75;11.85;;;14.20;97.30;;;;;;4993010;28;20058;-73
2021/10/14 09:25:37;;;;;;;25.83;13.10;;;14.20;97.30;;;;;;4992331;28;20094;-75
2021/10/14 09:28:11;;;;;;;19.70;10.55;;;14.20;97.60;;;;;;4993082;28;20031;-75
2021/10/14 09:30:53;;;;;;;24.08;12.07;;;14.10;97.40;;;;;;4992694;28;20498;-75
2021/10/14 09:33:35;;;;;;;21.13;11.50;;;14.10;97.50;;;;;;4991937;28;20509;-75
2021/10/14 09:36:15;;;;;;;24.40;13.00;;;14.10;97.50;;;;;;4991625;28;20022;-73
2021/10/14 09:38:43;;;;;;;20.17;11.90;;;14.20;97.50;;;;;;4992945;28;20071;-75
2021/10/14 09:41:11;;;;;;;18.30;9.98;;;14.20;97.40;;;;;;4992511;28;20542;-74
2021/10/14 09:43:37;;;;;;;19.85;11.38;;;14.30;97.40;;;;;;4992656;28;20567;-75
2021/10/14 09:46:03;;;;;;;22.23;11.18;;;14.20;97.30;;;;;;5007652;28;20022;-74
2021/10/14 09:48:29;;;;;;;28.15;13.50;;;14.30;97.40;;;;;;4991965;28;20238;-74
2021/10/14 09:50:54;;;;;;;22.63;12.32;;;14.20;97.40;;;;;;4992108;28;20022;-74
2021/10/14 09:53:22;;;;;;;28.10;13.60;;;14.20;97.40;;;;;;4991913;28;20033;-74
2021/10/14 09:55:50;;;;;;;24.90;12.13;;;14.20;97.50;;;;;;4992576;28;20026;-74
2021/10/14 09:58:17;;;;;;;23.45;12.43;;;14.20;97.50;;;;;;4991791;28;20029;-74
2021/10/14 10:00:43;;;;;;;25.33;13.02;;;14.20;97.50;;;;;;4992378;28;20122;-74
2021/10/14 10:03:17;;;;;;;23.30;13.45;;;14.30;97.50;;;;;;4992393;28;20019;-74
2021/10/14 10:05:55;;;;;;;23.52;11.75;;;14.30;97.60;;;;;;4992696;28;20026;-73
2021/10/14 10:08:36;;;;;;;20.10;10.80;;;14.30;97.50;;;;;;4991776;28;20416;-73
2021/10/14 10:11:03;;;;;;;;;;;14.30;97.50;;;;;;4992698;28;20053;-73
2021/10/14 10:13:30;;;;;;;27.20;13.13;;;14.30;97.40;;;;;;4991566;28;19949;-74
2021/10/14 10:16:17;;;;;;;25.55;13.43;;;14.30;97.40;;;;;;5010474;28;20113;-74
2021/10/14 10:18:43;;;;;;;23.58;11.40;;;14.30;97.40;;;;;;4996323;28;20092;-74
2021/10/14 10:21:29;;;;;;;19.80;11.95;;;14.30;97.50;;;;;;4996033;28;20054;-74
2021/10/14 10:24:00;;;;;;;18.45;10.10;;;14.30;97.50;;;;;;5011128;28;20048;-74
2021/10/14 10:26:34;;;;;;;25.75;13.13;;;14.30;97.50;;;;;;5010729;28;20034;-75
2021/10/14 10:29:02;;;;;;;22.45;12.00;;;14.30;97.50;;;;;;4996018;28;20034;-74
2021/10/14 10:31:51;;;;;;;22.60;12.02;;;14.40;97.50;;;;;;5009937;28;20054;-74
2021/10/14 10:34:51;;;;;;;26.10;13.55;;;14.40;97.50;;;;;;4994134;28;20463;-74
2021/10/14 10:40:19;;;;;;;26.55;13.35;;;14.50;97.40;;;;;;4996053;28;20454;-74
2021/10/14 10:42:59;;;;;;;20.03;11.93;;;14.60;97.40;;;;;;4994705;28;20022;-74
2021/10/14 10:45:30;;;;;;;30.52;14.27;;;14.60;97.40;;;;;;5010389;28;20396;-75
2021/10/14 10:47:59;;;;;;;25.30;13.93;;;14.70;97.30;;;;;;5010870;28;20386;-74
2021/10/14 10:50:33;;;;;;;27.52;13.77;;;14.80;97.20;;;;;;4994884;28;20038;-74
2021/10/14 10:53:08;;;;;;;25.55;13.40;;;14.90;97.20;;;;;;4995340;28;20478;-74
2021/10/14 10:55:50;;;;;;;25.13;14.13;;;15.00;97.10;;;;;;4995064;28;20249;-74
2021/10/14 10:58:31;;;;;;;26.02;13.13;;;15.10;96.90;;;;;;4994922;28;20101;-74
2021/10/14 11:00:57;;;;;;;22.85;13.27;;;15.00;96.90;;;;;;4994283;28;20430;-75
2021/10/14 11:03:27;;;;;;;23.98;12.73;;;15.10;97.00;;;;;;4994643;28;20022;-74
2021/10/14 11:05:53;;;;;;;25.55;13.75;;;15.10;97.00;;;;;;4995586;28;20038;-75
2021/10/14 11:08:25;;;;;;;22.95;12.63;;;15.10;96.90;;;;;;4993556;28;20379;-75
2021/10/14 11:10:57;;;;;;;22.85;12.98;;;15.20;96.90;;;;;;4995270;28;20490;-74
2021/10/14 11:13:24;;;;;;;20.83;12.95;;;15.20;96.90;;;;;;4994890;28;20473;-74
2021/10/14 11:15:54;;;;;;;27.40;14.57;;;15.20;96.90;;;;;;5010286;28;20114;-74
2021/10/14 11:18:21;;;;;;;23.48;13.60;;;15.20;96.90;;;;;;4994611;28;20126;-75
2021/10/14 11:20:56;;;;;;;23.45;13.75;;;15.10;97.00;;;;;;4995024;28;20033;-75
2021/10/14 11:23:30;;;;;;;22.77;13.00;;;15.30;97.00;;;;;;5009610;28;20023;-74
2021/10/14 11:26:06;;;;;;;21.85;12.00;;;15.50;96.80;;;;;;4994360;28;20037;-75
2021/10/14 11:28:57;;;;;;;20.10;10.90;;;15.70;96.50;;;;;;4994433;28;20033;-75
2021/10/14 11:31:26;;;;;;;22.08;13.50;;;15.70;96.30;;;;;;4994343;28;20050;-75
2021/10/14 11:33:52;;;;;;;25.48;13.05;;;15.60;96.40;;;;;;4995034;28;20026;-74
2021/10/14 11:36:22;;;;;;;22.33;12.10;;;15.50;96.50;;;;;;5008944;28;20022;-75
2021/10/14 11:39:13;;;;;;;20.35;11.30;;;15.50;96.60;;;;;;4994804;28;20015;-76
2021/10/14 11:41:40;;;;;;;21.65;12.02;;;15.50;96.70;;;;;;4993879;28;20043;-75
2021/10/14 11:44:09;;;;;;;23.05;11.70;;;15.50;96.70;;;;;;4994828;28;20117;-76
2021/10/14 11:46:37;;;;;;;18.83;11.85;;;15.50;96.60;;;;;;4994313;28;20026;-75
2021/10/14 11:49:08;;;;;;;19.58;12.00;;;15.50;96.60;;;;;;4994723;28;20101;-74
2021/10/14 11:51:34;;;;;;;20.27;12.57;;;15.50;96.60;;;;;;4993936;28;20038;-74
2021/10/14 11:54:13;;;;;;;24.00;13.50;;;15.60;96.60;;;;;;4994246;28;20451;-74
2021/10/14 11:56:53;;;;;;;19.23;11.90;;;15.60;96.60;;;;;;4993753;28;20034;-74
2021/10/14 11:59:24;;;;;;;18.40;10.80;;;15.60;96.60;;;;;;5009167;28;20467;-74
2021/10/14 12:01:49;;;;;;;;;;;15.50;96.60;;;;;;4994786;28;20038;-75
2021/10/14 12:04:21;;;;;;;18.77;10.60;;;15.50;96.60;;;;;;4994429;28;19960;-74
2021/10/14 12:06:48;;;;;;;18.80;10.38;;;15.40;96.60;;;;;;4994624;28;20029;-73
2021/10/14 12:09:16;;;;;;;19.83;9.43;;;15.40;96.60;;;;;;4994217;28;20099;-74
2021/10/14 12:11:42;;;;;;;21.88;12.55;;;15.40;96.70;;;;;;4993326;28;20035;-75
2021/10/14 12:14:08;;;;;;;18.65;10.52;;;15.40;96.70;;;;;;4994356;28;20026;-75
2021/10/14 12:16:34;;;;;;;15.65;9.68;;;15.30;96.70;;;;;;4993520;28;20020;-75
2021/10/14 12:19:14;;;;;;;19.33;10.77;;;15.40;96.70;;;;;;4994239;28;20109;-76
2021/10/14 12:21:42;;;;;;;18.08;10.15;;;15.40;96.70;;;;;;5008570;28;20089;-75
2021/10/14 12:24:25;;;;;;;16.90;9.43;;;15.40;96.70;;;;;;4994107;28;20109;-75
2021/10/14 12:26:55;;;;;;;15.77;9.60;;;15.40;96.70;;;;;;4994023;28;20080;-75
2021/10/14 12:29:22;;;;;;;16.20;9.38;;;15.40;96.60;;;;;;4993344;28;20042;-75
2021/10/14 12:31:49;;;;;;;17.38;9.13;;;15.40;96.50;;;;;;4994074;28;20058;-75
2021/10/14 12:34:15;;;;;;;17.30;9.55;;;15.50;96.50;;;;;;4993998;28;20058;-74
2021/10/14 12:36:42;;;;;;;16.88;8.95;;;15.50;96.40;;;;;;4992902;28;20732;-75